Time;durP1;ratioP1;P1;durP2;ratioP2;P2;SDS_P1;SDS_P2;PMS_P1;PMS_P2;Temp;Humidity;BMP_temperature;BMP_pressure;BME280_temperature;BME280_humidity;BME280_pressure;Samples;Min_cycle;Max_cycle;Signal;HPM_P1;HPM_P2
2023/01/21 00:00:07;;;;;;;17.13;8.87;;;;;-4.50;94025.00;;;;7400440;19;20196;-75
2023/01/21 00:02:43;;;;;;;13.67;9.10;;;;;-4.50;94026.00;;;;7401623;19;20136;-74
2023/01/21 00:05:12;;;;;;;15.53;8.97;;;;;-4.70;94019.00;;;;7402299;19;20134;-74
2023/01/21 00:07:47;;;;;;;18.63;8.80;;;;;-4.70;94019.00;;;;7402384;19;20138;-74
2023/01/21 00:10:21;;;;;;;12.17;8.03;;;;;-5.00;94034.00;;;;7400040;19;20141;-75
2023/01/21 00:12:49;;;;;;;13.90;9.10;;;;;-5.30;94031.00;;;;7400485;19;20146;-74
2023/01/21 00:15:23;;;;;;;14.07;8.73;;;;;-5.40;94033.00;;;;7399238;19;20575;-74
2023/01/21 00:17:58;;;;;;;15.93;9.30;;;;;-5.40;94033.00;;;;7400668;19;20129;-74
2023/01/21 00:20:26;;;;;;;16.40;8.60;;;;;-5.40;94029.00;;;;7401391;19;20184;-74
2023/01/21 00:23:01;;;;;;;15.07;8.57;;;;;-5.40;94039.00;;;;7400028;19;20144;-74
2023/01/21 00:25:29;;;;;;;14.60;9.30;;;;;-5.30;94026.00;;;;7401288;19;20649;-74
2023/01/21 00:28:03;;;;;;;16.17;8.43;;;;;-5.20;94033.00;;;;7401602;19;20627;-74
2023/01/21 00:30:31;;;;;;;12.70;8.37;;;;;-5.10;94029.00;;;;7400289;19;20153;-73
2023/01/21 00:33:06;;;;;;;20.83;8.90;;;;;-5.10;94032.00;;;;7399433;19;20596;-73
2023/01/21 00:35:41;;;;;;;13.67;8.43;;;;;-4.90;94035.00;;;;7399664;19;20133;-73
2023/01/21 00:38:08;;;;;;;12.57;7.93;;;;;-4.70;94035.00;;;;7399833;19;20209;-73
2023/01/21 00:40:42;;;;;;;13.17;7.73;;;;;-4.60;94039.00;;;;7399073;19;20122;-73
2023/01/21 00:43:09;;;;;;;11.70;7.57;;;;;-4.40;94045.00;;;;7399135;19;20524;-74
2023/01/21 00:45:44;;;;;;;13.27;7.43;;;;;-4.60;94041.00;;;;7400515;19;20201;-73
2023/01/21 00:48:11;;;;;;;15.70;7.43;;;;;-4.50;94043.00;;;;7398955;19;20640;-74
2023/01/21 00:50:46;;;;;;;12.43;7.43;;;;;-4.50;94041.00;;;;7400857;19;20117;-73
2023/01/21 00:53:23;;;;;;;11.83;7.37;;;;;-4.40;94047.00;;;;7396275;19;20145;-73
2023/01/21 00:56:02;;;;;;;11.53;6.97;;;;;-4.40;94040.00;;;;7395938;19;20165;-74
2023/01/21 00:58:36;;;;;;;14.47;7.90;;;;;-4.40;94041.00;;;;7399522;19;20602;-74
2023/01/21 01:01:35;;;;;;;12.13;7.20;;;;;-4.40;94050.00;;;;7398001;19;20164;-74
2023/01/21 01:04:11;;;;;;;11.90;7.27;;;;;-4.40;94044.00;;;;7398326;19;20632;-73
2023/01/21 01:06:47;;;;;;;15.77;7.67;;;;;-4.20;94057.00;;;;7398776;19;20730;-73
2023/01/21 01:09:24;;;;;;;9.23;6.57;;;;;-4.30;94060.00;;;;7398711;19;20600;-74
2023/01/21 01:11:59;;;;;;;13.23;6.70;;;;;-4.20;94056.00;;;;7398381;19;20153;-73
2023/01/21 01:14:27;;;;;;;11.03;6.33;;;;;-4.20;94064.00;;;;7398601;19;20117;-74
2023/01/21 01:17:02;;;;;;;13.07;6.13;;;;;-4.10;94062.00;;;;7397029;19;20138;-74
2023/01/21 01:19:29;;;;;;;8.90;5.50;;;;;-4.00;94054.00;;;;7398651;19;20175;-74
2023/01/21 01:22:04;;;;;;;9.27;5.17;;;;;-4.10;94063.00;;;;7399296;19;20582;-75
2023/01/21 01:24:38;;;;;;;11.40;5.27;;;;;-4.00;94059.00;;;;7399278;19;20132;-74
2023/01/21 01:27:12;;;;;;;6.20;4.50;;;;;-4.10;94061.00;;;;7398317;19;20137;-74
2023/01/21 01:29:41;;;;;;;8.50;5.00;;;;;-4.10;94076.00;;;;7399626;19;20204;-74
2023/01/21 01:32:15;;;;;;;8.03;4.90;;;;;-4.20;94069.00;;;;7398085;19;20132;-74
2023/01/21 01:34:49;;;;;;;7.43;5.10;;;;;-4.40;94070.00;;;;7397984;19;20135;-74
2023/01/21 01:37:16;;;;;;;9.63;5.63;;;;;-4.50;94070.00;;;;7397268;19;20244;-74
2023/01/21 01:39:53;;;;;;;9.10;5.77;;;;;-4.70;94084.00;;;;7398180;19;20623;-74
2023/01/21 01:42:20;;;;;;;8.10;5.20;;;;;-4.90;94082.00;;;;7398849;19;20127;-74
2023/01/21 01:44:54;;;;;;;7.27;5.23;;;;;-5.00;94082.00;;;;7398859;19;20132;-74
2023/01/21 01:47:41;;;;;;;11.53;5.77;;;;;-5.00;94086.00;;;;7399329;19;20119;-74
2023/01/21 01:50:12;;;;;;;13.33;6.17;;;;;-4.90;94088.00;;;;7397409;19;20612;-74
2023/01/21 01:52:53;;;;;;;9.93;6.33;;;;;-4.90;94082.00;;;;7395561;19;20171;-74
2023/01/21 01:55:37;;;;;;;9.90;6.40;;;;;-4.80;94087.00;;;;7397986;19;20152;-74
2023/01/21 01:58:09;;;;;;;8.53;5.90;;;;;-5.00;94084.00;;;;7397790;19;20603;-74
2023/01/21 02:00:44;;;;;;;7.73;5.30;;;;;-5.10;94084.00;;;;7399955;19;20136;-72
2023/01/21 02:06:14;;;;;;;9.23;5.67;;;;;-5.40;94098.00;;;;7400392;19;20132;-76
2023/01/21 02:08:48;;;;;;;9.47;6.53;;;;;-5.50;94099.00;;;;7406387;19;20129;-74
2023/01/21 02:11:23;;;;;;;9.80;5.57;;;;;-5.50;94101.00;;;;7406016;19;20149;-75
2023/01/21 02:13:54;;;;;;;8.13;5.43;;;;;-5.50;94099.00;;;;7406603;19;20599;-77
2023/01/21 02:17:13;;;;;;;8.53;5.40;;;;;-5.50;94103.00;;;;7405830;19;20150;-75
2023/01/21 02:19:53;;;;;;;9.73;6.33;;;;;-5.60;94116.00;;;;7406890;19;20480;-76
2023/01/21 02:22:46;;;;;;;9.97;5.67;;;;;-5.60;94100.00;;;;7406723;19;20158;-75
2023/01/21 02:25:29;;;;;;;9.83;6.10;;;;;-5.40;94108.00;;;;7407305;19;20135;-75
2023/01/21 02:28:31;;;;;;;10.70;5.90;;;;;-5.30;94114.00;;;;7406101;19;20273;-74
2023/01/21 02:31:16;;;;;;;7.97;5.53;;;;;-5.30;94110.00;;;;7407478;19;20129;-75
2023/01/21 02:34:12;;;;;;;8.77;5.60;;;;;-5.40;94110.00;;;;7404392;19;20217;-75
2023/01/21 02:37:08;;;;;;;9.27;5.93;;;;;-5.30;94133.00;;;;7405232;19;20144;-75
2023/01/21 02:39:54;;;;;;;7.90;5.70;;;;;-5.30;94127.00;;;;7405577;19;20833;-76
2023/01/21 02:42:46;;;;;;;11.10;5.30;;;;;-5.40;94128.00;;;;7405465;19;20138;-75
2023/01/21 02:45:16;;;;;;;8.43;5.50;;;;;-5.40;94122.00;;;;7404773;19;20145;-74
2023/01/21 02:48:04;;;;;;;10.73;5.90;;;;;-5.50;94127.00;;;;7404559;19;20116;-75
2023/01/21 02:50:39;;;;;;;9.97;6.00;;;;;-5.50;94127.00;;;;7404418;19;20510;-75
2023/01/21 02:53:31;;;;;;;10.17;5.93;;;;;-5.40;94132.00;;;;7404574;19;20196;-75
2023/01/21 02:56:07;;;;;;;10.00;5.97;;;;;-5.50;94134.00;;;;7405087;19;20460;-75
2023/01/21 02:58:56;;;;;;;11.37;6.97;;;;;-5.30;94144.00;;;;7404575;19;20132;-75
2023/01/21 03:01:48;;;;;;;11.27;7.20;;;;;-5.30;94140.00;;;;7404211;19;20152;-75
2023/01/21 03:04:51;;;;;;;13.90;7.30;;;;;-5.30;94140.00;;;;7403944;19;20129;-75
2023/01/21 03:07:32;;;;;;;12.63;8.13;;;;;-5.30;94143.00;;;;7403964;19;20126;-75
2023/01/21 03:10:28;;;;;;;13.47;7.63;;;;;-5.50;94130.00;;;;7404977;19;20129;-75
2023/01/21 03:16:55;;;;;;;14.07;8.10;;;;;-5.40;94147.00;;;;7402460;19;20133;-75
2023/01/21 03:19:17;;;;;;;14.50;7.17;;;;;-5.60;94139.00;;;;7402742;19;20152;-74
2023/01/21 03:21:47;;;;;;;12.07;6.50;;;;;-5.90;94134.00;;;;7404671;19;20154;-74
2023/01/21 03:24:23;;;;;;;13.13;7.43;;;;;-5.90;94133.00;;;;7404027;19;20125;-75
2023/01/21 03:26:59;;;;;;;12.77;6.07;;;;;-5.90;94138.00;;;;7403362;19;20133;-75
2023/01/21 03:29:35;;;;;;;10.07;6.37;;;;;-5.90;94137.00;;;;7405207;19;20141;-74
2023/01/21 03:32:12;;;;;;;10.53;6.10;;;;;-5.90;94142.00;;;;7402243;19;20117;-76
2023/01/21 03:34:44;;;;;;;10.73;6.43;;;;;-5.90;94142.00;;;;7402571;19;20576;-76
2023/01/21 03:37:30;;;;;;;9.97;5.90;;;;;-5.90;94146.00;;;;7401654;19;20616;-75
2023/01/21 03:40:20;;;;;;;12.97;6.37;;;;;-6.10;94138.00;;;;7403777;19;20134;-74
2023/01/21 03:42:55;;;;;;;10.33;5.93;;;;;-6.20;94143.00;;;;7402262;19;20161;-75
2023/01/21 03:45:59;;;;;;;9.47;5.43;;;;;-6.40;94159.00;;;;7402697;19;20486;-76
2023/01/21 03:48:41;;;;;;;8.30;5.30;;;;;-6.30;94151.00;;;;7403186;19;20137;-75
2023/01/21 03:51:14;;;;;;;10.73;5.80;;;;;-6.30;94154.00;;;;7402648;19;20206;-75
2023/01/21 03:53:55;;;;;;;6.10;4.47;;;;;-6.30;94151.00;;;;7402485;19;20125;-76
2023/01/21 03:56:30;;;;;;;9.83;5.20;;;;;-6.40;94143.00;;;;7403040;19;20546;-76
2023/01/21 03:59:04;;;;;;;9.00;5.63;;;;;-6.60;94155.00;;;;7402469;19;20144;-76
2023/01/21 04:01:40;;;;;;;9.13;5.07;;;;;-6.70;94151.00;;;;7402157;19;20129;-76
2023/01/21 04:04:20;;;;;;;8.43;5.40;;;;;-6.70;94160.00;;;;7400988;19;20140;-76
2023/01/21 04:06:48;;;;;;;7.53;4.73;;;;;-6.80;94142.00;;;;7401784;19;20462;-75
2023/01/21 04:09:22;;;;;;;8.57;4.87;;;;;-6.80;94155.00;;;;7402099;19;20120;-75
2023/01/21 04:11:57;;;;;;;11.17;5.37;;;;;-6.80;94152.00;;;;7402599;19;20602;-75
2023/01/21 04:14:24;;;;;;;11.20;5.40;;;;;-6.60;94162.00;;;;7404145;19;20129;-75
2023/01/21 04:16:59;;;;;;;10.23;4.70;;;;;-6.60;94182.00;;;;7400543;19;20121;-75
2023/01/21 04:19:33;;;;;;;7.07;4.37;;;;;-6.70;94171.00;;;;7402226;19;20133;-76
2023/01/21 04:22:07;;;;;;;7.73;4.77;;;;;-6.70;94178.00;;;;7400869;19;20137;-75
2023/01/21 04:24:48;;;;;;;6.93;4.40;;;;;-6.70;94180.00;;;;7401468;19;20454;-76
2023/01/21 04:27:22;;;;;;;7.30;4.43;;;;;-6.60;94183.00;;;;7401194;19;20120;-75
2023/01/21 04:29:50;;;;;;;9.57;4.83;;;;;-6.60;94187.00;;;;7400379;19;20745;-74
2023/01/21 04:32:25;;;;;;;9.87;4.30;;;;;-6.60;94181.00;;;;7401758;19;20618;-76
2023/01/21 04:34:52;;;;;;;5.90;4.20;;;;;-6.70;94178.00;;;;7399753;19;20129;-76
2023/01/21 04:37:27;;;;;;;9.23;4.93;;;;;-6.70;94182.00;;;;7400964;19;20116;-75
2023/01/21 04:39:54;;;;;;;7.23;4.87;;;;;-6.60;94180.00;;;;7401394;19;20133;-76
2023/01/21 04:42:28;;;;;;;8.13;4.03;;;;;-6.60;94173.00;;;;7401301;19;20603;-75
2023/01/21 04:45:02;;;;;;;7.30;4.03;;;;;-6.70;94180.00;;;;7401892;19;20129;-75
2023/01/21 04:47:29;;;;;;;6.87;4.73;;;;;-6.70;94187.00;;;;7399840;19;20204;-77
2023/01/21 04:50:04;;;;;;;8.50;4.30;;;;;-6.60;94187.00;;;;7400030;19;20113;-76
2023/01/21 04:52:38;;;;;;;5.67;3.80;;;;;-6.40;94190.00;;;;7399847;19;20152;-75
2023/01/21 04:55:06;;;;;;;7.07;4.40;;;;;-6.20;94182.00;;;;7399706;19;20137;-75
2023/01/21 04:57:40;;;;;;;7.20;4.67;;;;;-6.20;94190.00;;;;7400372;19;20125;-75
2023/01/21 05:00:14;;;;;;;7.50;5.30;;;;;-6.30;94179.00;;;;7399290;19;20507;-75
2023/01/21 05:02:43;;;;;;;10.07;5.00;;;;;-6.40;94195.00;;;;7398567;19;20172;-76
2023/01/21 05:05:17;;;;;;;10.60;5.90;;;;;-6.30;94187.00;;;;7399780;19;20145;-75
2023/01/21 05:07:44;;;;;;;9.87;6.17;;;;;-6.40;94183.00;;;;7399847;19;20149;-75
2023/01/21 05:10:18;;;;;;;9.37;5.67;;;;;-6.60;94187.00;;;;7398888;19;20152;-76
2023/01/21 05:12:47;;;;;;;12.67;5.97;;;;;-6.60;94194.00;;;;7399190;19;20129;-75
2023/01/21 05:15:21;;;;;;;8.37;5.27;;;;;-6.60;94192.00;;;;7399036;19;20145;-75
2023/01/21 05:17:48;;;;;;;8.67;5.20;;;;;-6.60;94195.00;;;;7397328;19;20482;-75
2023/01/21 05:20:22;;;;;;;8.93;5.63;;;;;-6.60;94192.00;;;;7398711;19;20124;-75
2023/01/21 05:22:56;;;;;;;9.37;6.37;;;;;-6.60;94188.00;;;;7397734;19;20526;-76
2023/01/21 05:25:31;;;;;;;8.67;5.97;;;;;-6.50;94195.00;;;;7400849;19;20120;-75
2023/01/21 05:27:59;;;;;;;10.27;5.77;;;;;-6.50;94189.00;;;;7398854;19;20125;-77
2023/01/21 05:30:34;;;;;;;16.43;6.07;;;;;-6.40;94203.00;;;;7398559;19;20137;-74
2023/01/21 05:33:10;;;;;;;8.67;5.27;;;;;-6.30;94202.00;;;;7400225;19;20591;-74
2023/01/21 05:35:45;;;;;;;8.83;6.03;;;;;-6.40;94193.00;;;;7398957;19;20510;-75
2023/01/21 05:38:12;;;;;;;8.30;5.10;;;;;-6.40;94196.00;;;;7397260;19;20629;-76
2023/01/21 05:40:46;;;;;;;9.53;5.40;;;;;-6.40;94193.00;;;;7398704;19;20196;-75
2023/01/21 05:43:20;;;;;;;8.93;5.50;;;;;-6.40;94186.00;;;;7398163;19;20149;-75
2023/01/21 05:45:47;;;;;;;7.53;4.73;;;;;-6.70;94197.00;;;;7398107;19;20136;-76
2023/01/21 05:48:21;;;;;;;7.07;4.67;;;;;-6.80;94201.00;;;;7396724;19;20165;-76
2023/01/21 05:50:56;;;;;;;5.47;3.93;;;;;-6.90;94209.00;;;;7398658;19;20137;-76
2023/01/21 05:53:40;;;;;;;6.57;4.43;;;;;-7.00;94215.00;;;;7397796;19;20147;-77
2023/01/21 05:56:21;;;;;;;8.20;4.70;;;;;-7.00;94210.00;;;;7398150;19;20491;-76
2023/01/21 05:58:56;;;;;;;7.40;4.57;;;;;-7.10;94207.00;;;;7399710;19;20161;-77
2023/01/21 06:01:31;;;;;;;6.20;4.43;;;;;-7.20;94207.00;;;;7399018;19;20470;-76
2023/01/21 06:04:05;;;;;;;12.83;4.70;;;;;-7.30;94223.00;;;;7397455;19;20638;-76
2023/01/21 06:06:40;;;;;;;6.33;4.20;;;;;-7.30;94222.00;;;;7400360;19;20615;-76
2023/01/21 06:09:14;;;;;;;8.13;4.80;;;;;-7.40;94218.00;;;;7399347;19;20141;-75
2023/01/21 06:11:41;;;;;;;8.23;4.73;;;;;-7.30;94227.00;;;;7398379;19;20609;-76
2023/01/21 06:14:16;;;;;;;9.23;4.90;;;;;-7.30;94238.00;;;;7400290;19;20138;-75
2023/01/21 06:16:43;;;;;;;10.67;5.30;;;;;-7.30;94233.00;;;;7397541;19;20675;-75
2023/01/21 06:19:18;;;;;;;11.80;6.37;;;;;-7.30;94230.00;;;;7399287;19;20139;-76
2023/01/21 06:21:45;;;;;;;9.13;6.03;;;;;-7.30;94239.00;;;;7398446;19;20547;-75
2023/01/21 06:24:20;;;;;;;9.60;5.80;;;;;-7.30;94237.00;;;;7398301;19;20168;-75
2023/01/21 06:26:54;;;;;;;9.53;6.40;;;;;-7.30;94242.00;;;;7399608;19;20145;-76
2023/01/21 06:29:28;;;;;;;15.20;7.07;;;;;-7.30;94240.00;;;;7397487;19;20120;-77
2023/01/21 06:31:55;;;;;;;16.10;6.97;;;;;-7.40;94256.00;;;;7398531;19;20221;-76
2023/01/21 06:34:29;;;;;;;10.50;6.60;;;;;-7.40;94249.00;;;;7397206;19;20148;-75
2023/01/21 06:37:03;;;;;;;11.07;6.53;;;;;-7.50;94241.00;;;;7397929;19;20162;-76
2023/01/21 06:39:37;;;;;;;14.73;6.53;;;;;-7.40;94257.00;;;;7398441;19;20582;-77
2023/01/21 06:42:05;;;;;;;8.87;6.30;;;;;-7.50;94253.00;;;;7397476;19;20203;-76
2023/01/21 06:44:39;;;;;;;11.70;7.10;;;;;-7.30;94263.00;;;;7399069;19;20596;-76
2023/01/21 06:47:13;;;;;;;9.83;6.37;;;;;-7.40;94262.00;;;;7397251;19;20535;-75
2023/01/21 06:49:47;;;;;;;12.23;7.73;;;;;-7.20;94270.00;;;;7397432;19;20137;-76
2023/01/21 06:52:14;;;;;;;13.57;8.00;;;;;-7.10;94267.00;;;;7396858;19;20146;-76
2023/01/21 06:54:42;;;;;;;12.80;8.37;;;;;-7.10;94275.00;;;;7403288;19;20132;-76
2023/01/21 06:57:18;;;;;;;17.60;8.03;;;;;-6.90;94273.00;;;;7405367;19;20125;-76
2023/01/21 06:59:45;;;;;;;19.23;9.77;;;;;-6.90;94276.00;;;;7404627;19;20229;-76
2023/01/21 07:02:20;;;;;;;16.23;9.60;;;;;-6.90;94280.00;;;;7402423;19;20149;-76
2023/01/21 07:05:00;;;;;;;21.20;10.07;;;;;-6.80;94278.00;;;;7404209;19;20141;-76
2023/01/21 07:07:28;;;;;;;19.40;10.93;;;;;-6.90;94281.00;;;;7403934;19;20141;-76
2023/01/21 07:10:02;;;;;;;21.30;11.83;;;;;-6.80;94289.00;;;;7404451;19;20515;-76
2023/01/21 07:12:30;;;;;;;24.37;11.93;;;;;-6.90;94291.00;;;;7404170;19;20132;-76
2023/01/21 07:15:05;;;;;;;19.33;11.57;;;;;-6.80;94292.00;;;;7404389;19;20133;-77
2023/01/21 07:17:33;;;;;;;21.40;11.10;;;;;-6.80;94294.00;;;;7401475;19;20160;-75
2023/01/21 07:20:07;;;;;;;20.30;12.27;;;;;-6.80;94301.00;;;;7402067;19;20136;-77
2023/01/21 07:22:35;;;;;;;19.60;10.80;;;;;-6.80;94301.00;;;;7404372;19;20580;-78
2023/01/21 07:25:09;;;;;;;22.93;10.50;;;;;-6.70;94306.00;;;;7407853;19;20535;-77
2023/01/21 07:27:43;;;;;;;17.57;10.10;;;;;-6.60;94303.00;;;;7404114;19;20600;-77
2023/01/21 07:30:17;;;;;;;21.07;10.87;;;;;-6.50;94303.00;;;;7402380;19;20168;-78
2023/01/21 07:32:52;;;;;;;22.13;11.07;;;;;-6.20;94311.00;;;;7403045;19;20141;-77
2023/01/21 07:35:22;;;;;;;17.63;10.27;;;;;-6.10;94314.00;;;;7405480;19;20615;-77
2023/01/21 07:37:59;;;;;;;20.70;11.23;;;;;-6.00;94306.00;;;;7402622;19;20155;-78
2023/01/21 07:40:34;;;;;;;20.80;12.50;;;;;-6.00;94316.00;;;;7402381;19;20145;-77
2023/01/21 07:43:02;;;;;;;22.63;11.33;;;;;-6.00;94311.00;;;;7401761;19;20145;-77
2023/01/21 07:45:36;;;;;;;20.40;12.00;;;;;-5.90;94316.00;;;;7402832;19;20152;-77
2023/01/21 07:48:05;;;;;;;21.37;12.77;;;;;-5.80;94326.00;;;;7402583;19;20486;-75
2023/01/21 07:50:39;;;;;;;21.27;11.33;;;;;-5.90;94328.00;;;;7403998;19;20121;-76
2023/01/21 07:53:08;;;;;;;21.87;13.53;;;;;-5.80;94324.00;;;;7403669;19;20592;-76
2023/01/21 07:55:42;;;;;;;27.17;12.83;;;;;-5.70;94330.00;;;;7402982;19;20593;-76
2023/01/21 07:58:09;;;;;;;24.10;12.43;;;;;-5.60;94331.00;;;;7399036;19;20137;-76
2023/01/21 08:00:44;;;;;;;34.47;15.90;;;;;-5.60;94328.00;;;;7403864;19;20590;-75
2023/01/21 08:03:20;;;;;;;32.83;14.67;;;;;-5.50;94334.00;;;;7401034;19;20178;-77
2023/01/21 08:05:55;;;;;;;41.53;16.30;;;;;-5.40;94344.00;;;;7401351;19;20125;-76
2023/01/21 08:08:29;;;;;;;56.93;17.97;;;;;-5.50;94348.00;;;;7403390;19;20125;-75
2023/01/21 08:11:03;;;;;;;78.97;17.67;;;;;-5.40;94340.00;;;;7402111;19;20454;-77
2023/01/21 08:13:31;;;;;;;115.20;19.67;;;;;-5.60;94347.00;;;;7403059;19;20125;-77
2023/01/21 08:16:05;;;;;;;56.27;19.60;;;;;-5.50;94352.00;;;;7401589;19;20140;-76
2023/01/21 08:18:33;;;;;;;96.57;20.13;;;;;-5.30;94345.00;;;;7399830;19;20126;-76
2023/01/21 08:21:07;;;;;;;81.97;18.43;;;;;-5.20;94343.00;;;;7400597;19;20125;-76
2023/01/21 08:23:41;;;;;;;52.40;16.93;;;;;-5.30;94351.00;;;;7403493;19;20468;-76
2023/01/21 08:26:08;;;;;;;151.37;19.93;;;;;-5.20;94356.00;;;;7401562;19;20206;-77
2023/01/21 08:28:43;;;;;;;331.60;24.87;;;;;-5.40;94354.00;;;;7402735;19;20581;-76
2023/01/21 08:31:12;;;;;;;390.73;26.47;;;;;-5.20;94348.00;;;;7400330;19;20143;-75
2023/01/21 08:33:47;;;;;;;273.47;22.40;;;;;-5.30;94355.00;;;;7400529;19;20125;-76
2023/01/21 08:36:21;;;;;;;327.40;23.97;;;;;-5.20;94357.00;;;;7401202;19;20177;-75
2023/01/21 08:39:00;;;;;;;374.47;27.37;;;;;-5.30;94355.00;;;;7399139;19;20493;-75
2023/01/21 08:41:29;;;;;;;532.43;32.30;;;;;-5.20;94364.00;;;;7401170;19;20137;-75
2023/01/21 08:44:03;;;;;;;608.47;32.60;;;;;-5.20;94366.00;;;;7401629;19;20583;-75
2023/01/21 08:46:31;;;;;;;276.47;23.10;;;;;-5.00;94368.00;;;;7401835;19;20132;-76
2023/01/21 08:49:05;;;;;;;508.57;32.10;;;;;-5.00;94366.00;;;;7402230;19;20604;-75
2023/01/21 08:51:33;;;;;;;515.70;37.07;;;;;-4.80;94367.00;;;;7401869;19;20205;-76
2023/01/21 08:54:08;;;;;;;225.63;27.60;;;;;-4.60;94366.00;;;;7400731;19;20158;-75
2023/01/21 08:56:35;;;;;;;419.90;32.50;;;;;-4.60;94364.00;;;;7401261;19;20167;-76
2023/01/21 08:59:10;;;;;;;461.37;32.60;;;;;-4.60;94367.00;;;;7401528;19;20121;-76
2023/01/21 09:01:39;;;;;;;367.00;28.47;;;;;-4.40;94375.00;;;;7401940;19;20599;-76
2023/01/21 09:04:22;;;;;;;511.23;35.10;;;;;-4.60;94372.00;;;;7400997;19;20175;-77
2023/01/21 09:06:56;;;;;;;175.80;25.13;;;;;-4.30;94372.00;;;;7391358;19;20147;-76
2023/01/21 09:09:24;;;;;;;205.33;27.37;;;;;-4.10;94385.00;;;;7395175;19;21024;-76
2023/01/21 09:11:52;;;;;;;257.90;26.83;;;;;-4.10;94378.00;;;;7398119;19;20600;-76
2023/01/21 09:14:27;;;;;;;193.77;24.40;;;;;-4.00;94380.00;;;;7394419;19;20198;-77
2023/01/21 09:16:55;;;;;;;232.07;25.53;;;;;-4.00;94373.00;;;;7399463;19;20574;-76
2023/01/21 09:19:29;;;;;;;136.20;21.73;;;;;-4.10;94383.00;;;;7400816;19;20586;-76
2023/01/21 09:22:03;;;;;;;96.10;24.20;;;;;-3.60;94377.00;;;;7400885;19;20639;-76
2023/01/21 09:24:37;;;;;;;174.97;23.90;;;;;-3.60;94384.00;;;;7399470;19;20147;-76
2023/01/21 09:27:06;;;;;;;141.40;22.43;;;;;-3.60;94375.00;;;;7400891;19;20655;-76
2023/01/21 09:29:40;;;;;;;57.40;21.37;;;;;-3.40;94370.00;;;;7400202;19;20211;-76
2023/01/21 09:32:08;;;;;;;71.10;18.23;;;;;-3.10;94382.00;;;;7399457;19;20700;-76
2023/01/21 09:34:43;;;;;;;119.97;20.97;;;;;-3.10;94387.00;;;;7401401;19;20140;-76
2023/01/21 09:37:17;;;;;;;64.60;19.40;;;;;-3.00;94384.00;;;;7398727;19;20143;-75
2023/01/21 09:39:51;;;;;;;45.50;18.37;;;;;-2.90;94390.00;;;;7399932;19;20208;-76
2023/01/21 09:42:24;;;;;;;32.93;15.20;;;;;-2.90;94395.00;;;;7398742;19;20133;-76
2023/01/21 09:45:00;;;;;;;77.47;17.83;;;;;-2.90;94390.00;;;;7399638;19;20639;-75
2023/01/21 09:47:40;;;;;;;89.90;18.13;;;;;-2.90;94389.00;;;;7401092;19;20589;-75
2023/01/21 09:50:18;;;;;;;34.00;15.70;;;;;-2.60;94382.00;;;;7399963;19;20152;-76
2023/01/21 09:52:58;;;;;;;40.57;15.50;;;;;-2.30;94393.00;;;;7400180;19;20133;-75
2023/01/21 09:55:43;;;;;;;32.20;15.23;;;;;-2.40;94381.00;;;;7399074;19;20204;-76
2023/01/21 09:58:42;;;;;;;27.03;13.93;;;;;-2.40;94389.00;;;;7397647;19;20156;-76
2023/01/21 10:01:29;;;;;;;40.80;15.00;;;;;-2.40;94392.00;;;;7397612;19;20656;-75
2023/01/21 10:04:51;;;;;;;24.37;13.10;;;;;-2.30;94388.00;;;;7396526;19;20631;-75
2023/01/21 10:07:32;;;;;;;26.33;12.23;;;;;-2.20;94389.00;;;;7399994;19;20142;-76
2023/01/21 10:10:31;;;;;;;24.73;13.73;;;;;-2.10;94388.00;;;;7399711;19;20127;-75
2023/01/21 10:13:34;;;;;;;23.30;12.10;;;;;-1.50;94379.00;;;;7397130;19;20129;-77
2023/01/21 10:16:55;;;;;;;23.13;12.30;;;;;-1.60;94394.00;;;;7397781;19;20141;-75
2023/01/21 10:19:28;;;;;;;26.13;11.03;;;;;-1.90;94394.00;;;;7396723;19;20125;-75
2023/01/21 10:22:17;;;;;;;22.73;11.60;;;;;-2.00;94397.00;;;;7397025;19;20129;-75
2023/01/21 10:24:54;;;;;;;17.53;10.23;;;;;-2.20;94392.00;;;;7398541;19;20627;-78
2023/01/21 10:27:34;;;;;;;22.47;11.33;;;;;-1.90;94390.00;;;;7399648;19;20137;-75
2023/01/21 10:30:38;;;;;;;20.43;11.67;;;;;-2.40;94407.00;;;;7406433;19;20117;-75
2023/01/21 10:33:24;;;;;;;21.60;11.20;;;;;-2.50;94398.00;;;;7405369;19;20136;-75
2023/01/21 10:36:17;;;;;;;20.30;11.67;;;;;-2.40;94403.00;;;;7406210;19;20144;-76
2023/01/21 10:39:11;;;;;;;23.33;11.37;;;;;-2.70;94390.00;;;;7410338;19;20137;-75
2023/01/21 10:42:20;;;;;;;24.37;10.87;;;;;-2.30;94386.00;;;;7406469;19;20117;-75
2023/01/21 10:45:25;;;;;;;26.47;12.47;;;;;-2.40;94389.00;;;;7405189;19;20158;-75
2023/01/21 10:48:04;;;;;;;39.70;13.47;;;;;-2.70;94387.00;;;;7404754;19;20132;-79
2023/01/21 10:50:53;;;;;;;20.60;11.43;;;;;-2.80;94383.00;;;;7405099;19;20484;-75
2023/01/21 10:53:33;;;;;;;23.17;11.63;;;;;-2.30;94393.00;;;;7406905;19;20136;-76
2023/01/21 10:56:37;;;;;;;21.20;11.73;;;;;-2.20;94394.00;;;;7404991;19;20196;-75
2023/01/21 10:59:16;;;;;;;36.37;13.20;;;;;-2.50;94393.00;;;;7402725;19;20240;-75
2023/01/21 11:01:49;;;;;;;21.87;12.30;;;;;-2.30;94401.00;;;;7404681;19;20136;-75
2023/01/21 11:04:29;;;;;;;32.03;12.50;;;;;-2.70;94395.00;;;;7403341;19;20145;-75
2023/01/21 11:07:07;;;;;;;18.10;11.20;;;;;-2.70;94392.00;;;;7406297;19;20125;-75
2023/01/21 11:09:38;;;;;;;21.43;11.63;;;;;-2.60;94390.00;;;;7405704;19;20129;-76
2023/01/21 11:12:18;;;;;;;20.17;11.83;;;;;-2.40;94390.00;;;;7406409;19;20161;-76
2023/01/21 11:15:12;;;;;;;18.37;10.73;;;;;-2.30;94389.00;;;;7406197;19;20580;-75
2023/01/21 11:17:52;;;;;;;24.40;11.70;;;;;-2.40;94395.00;;;;7405208;19;20196;-76
2023/01/21 11:20:22;;;;;;;18.90;11.27;;;;;-2.60;94389.00;;;;7405498;19;20487;-77
2023/01/21 11:22:56;;;;;;;22.87;12.00;;;;;-2.80;94392.00;;;;7405356;19;20472;-77
2023/01/21 11:25:42;;;;;;;26.47;12.17;;;;;-2.80;94377.00;;;;7405166;19;20129;-77
2023/01/21 11:28:25;;;;;;;20.67;11.43;;;;;-2.90;94401.00;;;;7403599;19;20175;-76
2023/01/21 11:31:19;;;;;;;26.93;11.53;;;;;-3.20;94402.00;;;;7406597;19;20155;-77
2023/01/21 11:34:02;;;;;;;32.17;13.77;;;;;-3.20;94389.00;;;;7403829;19;20591;-76
2023/01/21 11:36:29;;;;;;;22.73;13.03;;;;;-3.20;94395.00;;;;7404500;19;20135;-75
2023/01/21 11:39:07;;;;;;;22.43;11.27;;;;;-3.00;94396.00;;;;7402705;19;20165;-76
2023/01/21 11:41:54;;;;;;;23.47;12.70;;;;;-3.10;94400.00;;;;7403733;19;20133;-77
2023/01/21 11:44:32;;;;;;;24.13;12.07;;;;;-3.30;94395.00;;;;7402998;19;20129;-76
2023/01/21 11:47:28;;;;;;;26.90;13.47;;;;;-3.20;94403.00;;;;7397461;19;20567;-74
2023/01/21 11:50:21;;;;;;;22.63;12.90;;;;;-3.30;94403.00;;;;7398965;19;20627;-75
2023/01/21 11:53:16;;;;;;;23.30;12.30;;;;;-3.20;94400.00;;;;7397802;19;20131;-76
2023/01/21 11:55:52;;;;;;;24.63;12.00;;;;;-3.30;94387.00;;;;7400415;19;20155;-76
2023/01/21 11:58:32;;;;;;;26.33;13.27;;;;;-3.20;94389.00;;;;7396551;19;20155;-75
2023/01/21 12:01:20;;;;;;;22.97;12.77;;;;;-3.20;94400.00;;;;7398469;19;20463;-76
2023/01/21 12:04:02;;;;;;;25.50;13.73;;;;;-3.40;94385.00;;;;7395356;19;20183;-76
2023/01/21 12:06:50;;;;;;;25.73;13.63;;;;;-3.30;94379.00;;;;7397024;19;20495;-75
2023/01/21 12:09:19;;;;;;;30.53;13.13;;;;;-3.60;94373.00;;;;7398587;19;20586;-76
2023/01/21 12:12:05;;;;;;;32.43;14.33;;;;;-3.40;94380.00;;;;7398320;19;20230;-75
2023/01/21 12:14:53;;;;;;;26.23;13.50;;;;;-3.40;94379.00;;;;7398792;19;20792;-75
2023/01/21 12:17:39;;;;;;;25.33;12.73;;;;;-3.50;94377.00;;;;7397089;19;20623;-75
2023/01/21 12:20:39;;;;;;;27.20;13.70;;;;;-3.40;94381.00;;;;7398080;19;20134;-75
2023/01/21 12:23:51;;;;;;;29.37;14.57;;;;;-3.20;94382.00;;;;7397175;19;20620;-75
2023/01/21 12:26:36;;;;;;;31.07;14.27;;;;;-3.40;94377.00;;;;7397578;19;20140;-76
2023/01/21 12:29:28;;;;;;;37.53;15.63;;;;;-3.50;94381.00;;;;7397133;19;20484;-75
2023/01/21 12:32:11;;;;;;;42.23;14.23;;;;;-3.70;94370.00;;;;7396718;19;20153;-76
2023/01/21 12:34:59;;;;;;;33.57;15.70;;;;;-3.60;94367.00;;;;7398662;19;20489;-76
2023/01/21 12:37:36;;;;;;;25.70;14.30;;;;;-3.40;94366.00;;;;7399270;19;20199;-76
2023/01/21 12:40:35;;;;;;;25.33;14.50;;;;;-3.50;94367.00;;;;7398387;19;20131;-76
2023/01/21 12:43:18;;;;;;;34.73;13.63;;;;;-3.40;94370.00;;;;7397797;19;20179;-75
2023/01/21 12:45:55;;;;;;;29.57;14.63;;;;;-3.40;94378.00;;;;7396981;19;20172;-75
2023/01/21 12:48:36;;;;;;;31.53;13.87;;;;;-3.30;94379.00;;;;7397544;19;20148;-75
2023/01/21 12:51:18;;;;;;;34.97;14.63;;;;;-3.30;94377.00;;;;7396941;19;20722;-75
2023/01/21 12:54:09;;;;;;;36.37;15.43;;;;;-3.30;94375.00;;;;7395461;19;20227;-75
2023/01/21 12:57:24;;;;;;;29.87;15.43;;;;;-3.50;94375.00;;;;7398109;19;20140;-75
2023/01/21 13:00:17;;;;;;;31.53;13.63;;;;;-3.60;94368.00;;;;7391847;19;20142;-75
2023/01/21 13:03:13;;;;;;;32.07;13.87;;;;;-3.40;94369.00;;;;7392706;19;20201;-75